sensor_id;sensor_type;location;lat;lon;timestamp;temperature;humidity
21121;DHT22;12519;43.318;21.898;2024-01-10T00:03:46;1.9;84.0
21121;DHT22;12519;43.318;21.898;2024-01-10T00:08:23;1.4;86.0
21121;DHT22;12519;43.318;21.898;2024-01-10T00:12:59;1.4;86.0
21121;DHT22;12519;43.318;21.898;2024-01-10T00:17:36;1.4;86.0
21121;DHT22;12519;43.318;21.898;2024-01-10T00:22:12;0.8;88.0
21121;DHT22;12519;43.318;21.898;2024-01-10T00:26:48;0.8;88.0
21121;DHT22;12519;43.318;21.898;2024-01-10T00:31:25;0.6;88.0
21121;DHT22;12519;43.318;21.898;2024-01-10T00:36:01;0.6;88.0
21121;DHT22;12519;43.318;21.898;2024-01-10T00:40:37;0.4;89.0
21121;DHT22;12519;43.318;21.898;2024-01-10T00:45:14;0.4;89.0
21121;DHT22;12519;43.318;21.898;2024-01-10T00:49:50;0.2;90.0
21121;DHT22;12519;43.318;21.898;2024-01-10T00:54:26;0.2;90.0
21121;DHT22;12519;43.318;21.898;2024-01-10T00:59:02;0.1;90.0
21121;DHT22;12519;43.318;21.898;2024-01-10T01:03:38;0.1;90.0
21121;DHT22;12519;43.318;21.898;2024-01-10T01:08:15;0.1;90.0
21121;DHT22;12519;43.318;21.898;2024-01-10T01:12:51;0.4;90.0
21121;DHT22;12519;43.318;21.898;2024-01-10T01:17:28;0.4;90.0
21121;DHT22;12519;43.318;21.898;2024-01-10T01:22:05;0.7;89.0
21121;DHT22;12519;43.318;21.898;2024-01-10T01:26:41;0.7;89.0
21121;DHT22;12519;43.318;21.898;2024-01-10T01:31:18;0.8;89.0
21121;DHT22;12519;43.318;21.898;2024-01-10T01:35:54;0.8;89.0
21121;DHT22;12519;43.318;21.898;2024-01-10T01:40:31;0.8;88.0
21121;DHT22;12519;43.318;21.898;2024-01-10T01:45:09;0.8;88.0
21121;DHT22;12519;43.318;21.898;2024-01-10T01:49:46;0.8;87.0
21121;DHT22;12519;43.318;21.898;2024-01-10T01:54:24;0.8;87.0
21121;DHT22;12519;43.318;21.898;2024-01-10T01:59:04;0.9;86.0
21121;DHT22;12519;43.318;21.898;2024-01-10T02:03:41;0.9;86.0
21121;DHT22;12519;43.318;21.898;2024-01-10T02:08:17;0.9;86.0
21121;DHT22;12519;43.318;21.898;2024-01-10T02:12:53;1.2;85.0
21121;DHT22;12519;43.318;21.898;2024-01-10T02:17:29;1.2;85.0
21121;DHT22;12519;43.318;21.898;2024-01-10T02:22:06;1.4;84.0
21121;DHT22;12519;43.318;21.898;2024-01-10T02:26:43;1.4;84.0
21121;DHT22;12519;43.318;21.898;2024-01-10T02:31:19;1.4;84.0
21121;DHT22;12519;43.318;21.898;2024-01-10T02:35:56;1.4;84.0
21121;DHT22;12519;43.318;21.898;2024-01-10T02:40:32;1.4;83.0
21121;DHT22;12519;43.318;21.898;2024-01-10T02:45:09;1.4;83.0
21121;DHT22;12519;43.318;21.898;2024-01-10T02:49:46;1.5;83.0
21121;DHT22;12519;43.318;21.898;2024-01-10T02:54:22;1.5;83.0
21121;DHT22;12519;43.318;21.898;2024-01-10T02:58:58;1.6;83.0
21121;DHT22;12519;43.318;21.898;2024-01-10T03:03:35;1.6;83.0
21121;DHT22;12519;43.318;21.898;2024-01-10T03:08:11;1.6;83.0
21121;DHT22;12519;43.318;21.898;2024-01-10T03:12:48;1.6;83.0
21121;DHT22;12519;43.318;21.898;2024-01-10T03:17:24;1.6;83.0
21121;DHT22;12519;43.318;21.898;2024-01-10T03:22:00;1.5;82.0
21121;DHT22;12519;43.318;21.898;2024-01-10T03:26:36;1.5;82.0
21121;DHT22;12519;43.318;21.898;2024-01-10T03:31:13;1.4;82.0
21121;DHT22;12519;43.318;21.898;2024-01-10T03:35:49;1.4;82.0
21121;DHT22;12519;43.318;21.898;2024-01-10T03:40:27;1.3;82.0
21121;DHT22;12519;43.318;21.898;2024-01-10T03:45:05;1.3;82.0
21121;DHT22;12519;43.318;21.898;2024-01-10T03:49:42;1.2;82.0
21121;DHT22;12519;43.318;21.898;2024-01-10T03:54:18;1.2;82.0
21121;DHT22;12519;43.318;21.898;2024-01-10T03:58:55;1.2;82.0
21121;DHT22;12519;43.318;21.898;2024-01-10T04:03:32;1.2;82.0
21121;DHT22;12519;43.318;21.898;2024-01-10T04:08:09;1.2;82.0
21121;DHT22;12519;43.318;21.898;2024-01-10T04:12:46;1.1;82.0
21121;DHT22;12519;43.318;21.898;2024-01-10T04:17:23;1.1;82.0
21121;DHT22;12519;43.318;21.898;2024-01-10T04:22:00;1.0;82.0
21121;DHT22;12519;43.318;21.898;2024-01-10T04:26:37;1.0;82.0
21121;DHT22;12519;43.318;21.898;2024-01-10T04:31:13;1.8;85.0
21121;DHT22;12519;43.318;21.898;2024-01-10T04:35:50;1.8;85.0
21121;DHT22;12519;43.318;21.898;2024-01-10T04:40:26;2.6;88.0
21121;DHT22;12519;43.318;21.898;2024-01-10T04:45:05;2.6;88.0
21121;DHT22;12519;43.318;21.898;2024-01-10T04:49:42;2.5;83.0
21121;DHT22;12519;43.318;21.898;2024-01-10T04:54:18;2.5;83.0
21121;DHT22;12519;43.318;21.898;2024-01-10T04:58:55;2.4;77.0
21121;DHT22;12519;43.318;21.898;2024-01-10T05:03:31;2.4;77.0
21121;DHT22;12519;43.318;21.898;2024-01-10T05:08:07;2.4;77.0
21121;DHT22;12519;43.318;21.898;2024-01-10T05:12:44;1.6;78.0
21121;DHT22;12519;43.318;21.898;2024-01-10T05:17:21;1.6;78.0
21121;DHT22;12519;43.318;21.898;2024-01-10T05:21:57;0.8;79.0
21121;DHT22;12519;43.318;21.898;2024-01-10T05:26:34;0.8;79.0
21121;DHT22;12519;43.318;21.898;2024-01-10T05:31:10;0.8;79.0
21121;DHT22;12519;43.318;21.898;2024-01-10T05:35:47;0.8;79.0
21121;DHT22;12519;43.318;21.898;2024-01-10T05:40:23;0.8;79.0
21121;DHT22;12519;43.318;21.898;2024-01-10T05:45:01;0.8;79.0
21121;DHT22;12519;43.318;21.898;2024-01-10T05:49:37;0.8;80.0
21121;DHT22;12519;43.318;21.898;2024-01-10T05:54:13;0.8;80.0
21121;DHT22;12519;43.318;21.898;2024-01-10T05:58:49;0.8;80.0
21121;DHT22;12519;43.318;21.898;2024-01-10T06:03:25;0.8;80.0
21121;DHT22;12519;43.318;21.898;2024-01-10T06:08:02;0.8;80.0
21121;DHT22;12519;43.318;21.898;2024-01-10T06:12:39;0.8;81.0
21121;DHT22;12519;43.318;21.898;2024-01-10T06:17:15;0.8;81.0
21121;DHT22;12519;43.318;21.898;2024-01-10T06:21:51;0.7;82.0
21121;DHT22;12519;43.318;21.898;2024-01-10T06:26:27;0.7;82.0
21121;DHT22;12519;43.318;21.898;2024-01-10T06:31:04;0.8;81.0
21121;DHT22;12519;43.318;21.898;2024-01-10T06:35:41;0.8;81.0
21121;DHT22;12519;43.318;21.898;2024-01-10T06:40:18;0.8;81.0
21121;DHT22;12519;43.318;21.898;2024-01-10T06:44:54;0.8;81.0
21121;DHT22;12519;43.318;21.898;2024-01-10T06:49:31;0.7;81.0
21121;DHT22;12519;43.318;21.898;2024-01-10T06:54:08;0.7;81.0
21121;DHT22;12519;43.318;21.898;2024-01-10T06:58:44;0.7;81.0
21121;DHT22;12519;43.318;21.898;2024-01-10T07:03:20;0.6;81.0
21121;DHT22;12519;43.318;21.898;2024-01-10T07:07:56;0.6;81.0
21121;DHT22;12519;43.318;21.898;2024-01-10T07:12:33;0.5;81.0
21121;DHT22;12519;43.318;21.898;2024-01-10T07:17:10;0.5;81.0
21121;DHT22;12519;43.318;21.898;2024-01-10T07:21:46;0.4;80.0
21121;DHT22;12519;43.318;21.898;2024-01-10T07:26:22;0.4;80.0
21121;DHT22;12519;43.318;21.898;2024-01-10T07:30:58;0.2;80.0
21121;DHT22;12519;43.318;21.898;2024-01-10T07:35:34;0.2;80.0
21121;DHT22;12519;43.318;21.898;2024-01-10T07:40:11;0.1;80.0
21121;DHT22;12519;43.318;21.898;2024-01-10T07:44:47;0.1;80.0
21121;DHT22;12519;43.318;21.898;2024-01-10T07:49:23;0.7;80.0
21121;DHT22;12519;43.318;21.898;2024-01-10T07:53:59;0.7;80.0
21121;DHT22;12519;43.318;21.898;2024-01-10T07:58:36;0.7;80.0
21121;DHT22;12519;43.318;21.898;2024-01-10T08:03:12;1.3;80.0
21121;DHT22;12519;43.318;21.898;2024-01-10T08:07:48;1.3;80.0
21121;DHT22;12519;43.318;21.898;2024-01-10T08:12:25;2.2;78.0
21121;DHT22;12519;43.318;21.898;2024-01-10T08:17:01;2.2;78.0
21121;DHT22;12519;43.318;21.898;2024-01-10T08:21:38;3.1;76.0
21121;DHT22;12519;43.318;21.898;2024-01-10T08:26:15;3.1;76.0
21121;DHT22;12519;43.318;21.898;2024-01-10T08:30:51;3.5;76.0
21121;DHT22;12519;43.318;21.898;2024-01-10T08:35:27;3.5;76.0
21121;DHT22;12519;43.318;21.898;2024-01-10T08:40:03;3.9;74.0
21121;DHT22;12519;43.318;21.898;2024-01-10T08:44:42;3.9;74.0
21121;DHT22;12519;43.318;21.898;2024-01-10T08:49:18;3.9;74.0
21121;DHT22;12519;43.318;21.898;2024-01-10T08:53:55;4.1;74.0
21121;DHT22;12519;43.318;21.898;2024-01-10T08:58:31;4.1;74.0
21121;DHT22;12519;43.318;21.898;2024-01-10T09:03:08;4.3;74.0
21121;DHT22;12519;43.318;21.898;2024-01-10T09:07:44;4.3;74.0
21121;DHT22;12519;43.318;21.898;2024-01-10T09:12:21;3.8;74.0
21121;DHT22;12519;43.318;21.898;2024-01-10T09:16:58;3.8;74.0
21121;DHT22;12519;43.318;21.898;2024-01-10T09:21:35;3.4;75.0
21121;DHT22;12519;43.318;21.898;2024-01-10T09:26:15;3.4;75.0
21121;DHT22;12519;43.318;21.898;2024-01-10T09:30:52;2.9;74.0
21121;DHT22;12519;43.318;21.898;2024-01-10T09:35:28;2.9;74.0
21121;DHT22;12519;43.318;21.898;2024-01-10T09:40:06;2.4;74.0
21121;DHT22;12519;43.318;21.898;2024-01-10T09:44:52;2.4;74.0
21121;DHT22;12519;43.318;21.898;2024-01-10T09:49:29;2.4;74.0
21121;DHT22;12519;43.318;21.898;2024-01-10T09:54:06;2.6;74.0
21121;DHT22;12519;43.318;21.898;2024-01-10T09:58:45;2.6;74.0
21121;DHT22;12519;43.318;21.898;2024-01-10T10:03:27;2.7;75.0
21121;DHT22;12519;43.318;21.898;2024-01-10T10:08:06;2.7;75.0
21121;DHT22;12519;43.318;21.898;2024-01-10T10:12:49;3.0;74.0
21121;DHT22;12519;43.318;21.898;2024-01-10T10:17:28;3.0;74.0
21121;DHT22;12519;43.318;21.898;2024-01-10T10:22:07;3.3;73.0
21121;DHT22;12519;43.318;21.898;2024-01-10T10:26:45;3.3;73.0
21121;DHT22;12519;43.318;21.898;2024-01-10T10:31:23;3.4;72.0
21121;DHT22;12519;43.318;21.898;2024-01-10T10:36:02;3.4;72.0
21121;DHT22;12519;43.318;21.898;2024-01-10T10:40:41;3.4;72.0
21121;DHT22;12519;43.318;21.898;2024-01-10T10:45:18;3.4;72.0
21121;DHT22;12519;43.318;21.898;2024-01-10T10:49:55;3.4;73.0
21121;DHT22;12519;43.318;21.898;2024-01-10T10:54:39;3.4;73.0
21121;DHT22;12519;43.318;21.898;2024-01-10T10:59:19;3.4;73.0
21121;DHT22;12519;43.318;21.898;2024-01-10T11:04:02;3.4;75.0
21121;DHT22;12519;43.318;21.898;2024-01-10T11:08:45;3.4;75.0
21121;DHT22;12519;43.318;21.898;2024-01-10T11:13:54;3.2;74.0
21121;DHT22;12519;43.318;21.898;2024-01-10T11:19:27;3.2;74.0
21121;DHT22;12519;43.318;21.898;2024-01-10T11:24:56;3.0;74.0
21121;DHT22;12519;43.318;21.898;2024-01-10T11:29:37;3.0;74.0
21121;DHT22;12519;43.318;21.898;2024-01-10T11:34:14;3.0;74.0
21121;DHT22;12519;43.318;21.898;2024-01-10T11:38:58;3.0;74.0
21121;DHT22;12519;43.318;21.898;2024-01-10T11:43:39;2.9;75.0
21121;DHT22;12519;43.318;21.898;2024-01-10T11:48:16;2.9;75.0
21121;DHT22;12519;43.318;21.898;2024-01-10T11:53:03;2.8;75.0
21121;DHT22;12519;43.318;21.898;2024-01-10T11:57:39;2.8;75.0
21121;DHT22;12519;43.318;21.898;2024-01-10T12:02:16;2.7;76.0
21121;DHT22;12519;43.318;21.898;2024-01-10T12:06:57;2.7;76.0
21121;DHT22;12519;43.318;21.898;2024-01-10T12:11:34;2.8;76.0
21121;DHT22;12519;43.318;21.898;2024-01-10T12:16:12;2.8;76.0
21121;DHT22;12519;43.318;21.898;2024-01-10T12:20:50;2.9;76.0
21121;DHT22;12519;43.318;21.898;2024-01-10T12:25:27;2.9;76.0
21121;DHT22;12519;43.318;21.898;2024-01-10T12:30:04;3.0;75.0
21121;DHT22;12519;43.318;21.898;2024-01-10T12:34:45;3.0;75.0
21121;DHT22;12519;43.318;21.898;2024-01-10T12:39:22;3.0;75.0
21121;DHT22;12519;43.318;21.898;2024-01-10T12:43:59;3.2;74.0
21121;DHT22;12519;43.318;21.898;2024-01-10T12:48:37;3.2;74.0
21121;DHT22;12519;43.318;21.898;2024-01-10T12:53:17;3.8;76.0
21121;DHT22;12519;43.318;21.898;2024-01-10T12:57:53;3.8;76.0
21121;DHT22;12519;43.318;21.898;2024-01-10T13:02:30;4.3;78.0
21121;DHT22;12519;43.318;21.898;2024-01-10T13:07:06;4.3;78.0
21121;DHT22;12519;43.318;21.898;2024-01-10T13:11:43;4.0;76.0
21121;DHT22;12519;43.318;21.898;2024-01-10T13:16:20;4.0;76.0
21121;DHT22;12519;43.318;21.898;2024-01-10T13:20:56;3.6;74.0
21121;DHT22;12519;43.318;21.898;2024-01-10T13:25:34;3.6;74.0
21121;DHT22;12519;43.318;21.898;2024-01-10T13:30:12;3.4;74.0
21121;DHT22;12519;43.318;21.898;2024-01-10T13:34:49;3.4;74.0
21121;DHT22;12519;43.318;21.898;2024-01-10T13:39:26;3.4;74.0
21121;DHT22;12519;43.318;21.898;2024-01-10T13:44:02;3.3;74.0
21121;DHT22;12519;43.318;21.898;2024-01-10T13:48:39;3.3;74.0
21121;DHT22;12519;43.318;21.898;2024-01-10T13:53:15;3.4;73.0
21121;DHT22;12519;43.318;21.898;2024-01-10T13:57:51;3.4;73.0
21121;DHT22;12519;43.318;21.898;2024-01-10T14:02:27;3.5;73.0
21121;DHT22;12519;43.318;21.898;2024-01-10T14:07:03;3.5;73.0
21121;DHT22;12519;43.318;21.898;2024-01-10T14:11:40;3.5;73.0
21121;DHT22;12519;43.318;21.898;2024-01-10T14:16:16;3.5;73.0
21121;DHT22;12519;43.318;21.898;2024-01-10T14:20:52;3.5;73.0
21121;DHT22;12519;43.318;21.898;2024-01-10T14:25:28;3.5;73.0
21121;DHT22;12519;43.318;21.898;2024-01-10T14:30:06;3.5;73.0
21121;DHT22;12519;43.318;21.898;2024-01-10T14:34:44;3.2;74.0
21121;DHT22;12519;43.318;21.898;2024-01-10T14:39:21;3.2;74.0
21121;DHT22;12519;43.318;21.898;2024-01-10T14:43:58;2.9;75.0
21121;DHT22;12519;43.318;21.898;2024-01-10T14:48:36;2.9;75.0
21121;DHT22;12519;43.318;21.898;2024-01-10T14:53:12;2.8;75.0
21121;DHT22;12519;43.318;21.898;2024-01-10T14:57:49;2.8;75.0
21121;DHT22;12519;43.318;21.898;2024-01-10T15:02:25;2.6;76.0
21121;DHT22;12519;43.318;21.898;2024-01-10T15:07:03;2.6;76.0
21121;DHT22;12519;43.318;21.898;2024-01-10T15:11:41;2.4;76.0
21121;DHT22;12519;43.318;21.898;2024-01-10T15:16:18;2.4;76.0
21121;DHT22;12519;43.318;21.898;2024-01-10T15:20:54;2.3;76.0
21121;DHT22;12519;43.318;21.898;2024-01-10T15:25:30;2.3;76.0
21121;DHT22;12519;43.318;21.898;2024-01-10T15:30:07;2.3;76.0
21121;DHT22;12519;43.318;21.898;2024-01-10T15:34:47;2.2;76.0
21121;DHT22;12519;43.318;21.898;2024-01-10T15:39:23;2.2;76.0
21121;DHT22;12519;43.318;21.898;2024-01-10T15:44:00;2.1;76.0
21121;DHT22;12519;43.318;21.898;2024-01-10T15:48:36;2.1;76.0
21121;DHT22;12519;43.318;21.898;2024-01-10T15:53:12;2.1;76.0
21121;DHT22;12519;43.318;21.898;2024-01-10T15:57:48;2.1;76.0
21121;DHT22;12519;43.318;21.898;2024-01-10T16:02:26;2.1;76.0
21121;DHT22;12519;43.318;21.898;2024-01-10T16:07:03;2.1;76.0
21121;DHT22;12519;43.318;21.898;2024-01-10T16:11:40;1.8;76.0
21121;DHT22;12519;43.318;21.898;2024-01-10T16:16:21;1.8;76.0
21121;DHT22;12519;43.318;21.898;2024-01-10T16:21:03;1.6;77.0
21121;DHT22;12519;43.318;21.898;2024-01-10T16:25:41;1.6;77.0
21121;DHT22;12519;43.318;21.898;2024-01-10T16:30:17;1.6;77.0
21121;DHT22;12519;43.318;21.898;2024-01-10T16:34:53;1.8;77.0
21121;DHT22;12519;43.318;21.898;2024-01-10T16:39:29;1.8;77.0
21121;DHT22;12519;43.318;21.898;2024-01-10T16:44:06;2.0;78.0
21121;DHT22;12519;43.318;21.898;2024-01-10T16:48:42;2.0;78.0
21121;DHT22;12519;43.318;21.898;2024-01-10T16:53:18;2.0;78.0
21121;DHT22;12519;43.318;21.898;2024-01-10T16:57:54;2.0;78.0
21121;DHT22;12519;43.318;21.898;2024-01-10T17:02:30;2.0;77.0
21121;DHT22;12519;43.318;21.898;2024-01-10T17:07:07;2.0;77.0
21121;DHT22;12519;43.318;21.898;2024-01-10T17:11:43;2.2;77.0
21121;DHT22;12519;43.318;21.898;2024-01-10T17:16:19;2.2;77.0
21121;DHT22;12519;43.318;21.898;2024-01-10T17:20:56;2.3;77.0
21121;DHT22;12519;43.318;21.898;2024-01-10T17:25:32;2.3;77.0
21121;DHT22;12519;43.318;21.898;2024-01-10T17:30:09;2.3;77.0
21121;DHT22;12519;43.318;21.898;2024-01-10T17:34:47;2.2;77.0
21121;DHT22;12519;43.318;21.898;2024-01-10T17:39:24;2.2;77.0
21121;DHT22;12519;43.318;21.898;2024-01-10T17:44:00;2.2;78.0
21121;DHT22;12519;43.318;21.898;2024-01-10T17:48:36;2.2;78.0
21121;DHT22;12519;43.318;21.898;2024-01-10T17:53:12;2.2;78.0
21121;DHT22;12519;43.318;21.898;2024-01-10T17:57:49;2.2;78.0
21121;DHT22;12519;43.318;21.898;2024-01-10T18:02:25;2.3;78.0
21121;DHT22;12519;43.318;21.898;2024-01-10T18:07:01;2.3;78.0
21121;DHT22;12519;43.318;21.898;2024-01-10T18:11:38;2.3;77.0
21121;DHT22;12519;43.318;21.898;2024-01-10T18:16:14;2.3;77.0
21121;DHT22;12519;43.318;21.898;2024-01-10T18:20:50;2.3;77.0
21121;DHT22;12519;43.318;21.898;2024-01-10T18:25:26;2.3;77.0
21121;DHT22;12519;43.318;21.898;2024-01-10T18:30:02;2.3;77.0
21121;DHT22;12519;43.318;21.898;2024-01-10T18:34:43;2.1;77.0
21121;DHT22;12519;43.318;21.898;2024-01-10T18:39:19;2.1;77.0
21121;DHT22;12519;43.318;21.898;2024-01-10T18:43:55;1.9;77.0
21121;DHT22;12519;43.318;21.898;2024-01-10T18:48:32;1.9;77.0
21121;DHT22;12519;43.318;21.898;2024-01-10T18:53:08;1.8;77.0
21121;DHT22;12519;43.318;21.898;2024-01-10T18:57:44;1.8;77.0
21121;DHT22;12519;43.318;21.898;2024-01-10T19:02:21;1.7;77.0
21121;DHT22;12519;43.318;21.898;2024-01-10T19:06:57;1.7;77.0
21121;DHT22;12519;43.318;21.898;2024-01-10T19:11:34;1.8;76.0
21121;DHT22;12519;43.318;21.898;2024-01-10T19:16:10;1.8;76.0
21121;DHT22;12519;43.318;21.898;2024-01-10T19:20:46;1.8;76.0
21121;DHT22;12519;43.318;21.898;2024-01-10T19:25:22;1.9;76.0
21121;DHT22;12519;43.318;21.898;2024-01-10T19:29:58;1.9;76.0
21121;DHT22;12519;43.318;21.898;2024-01-10T19:34:34;1.8;77.0
21121;DHT22;12519;43.318;21.898;2024-01-10T19:39:10;1.8;77.0
21121;DHT22;12519;43.318;21.898;2024-01-10T19:43:47;1.7;78.0
21121;DHT22;12519;43.318;21.898;2024-01-10T19:48:26;1.7;78.0
21121;DHT22;12519;43.318;21.898;2024-01-10T19:53:03;1.5;79.0
21121;DHT22;12519;43.318;21.898;2024-01-10T19:57:39;1.5;79.0
21121;DHT22;12519;43.318;21.898;2024-01-10T20:02:16;1.3;80.0
21121;DHT22;12519;43.318;21.898;2024-01-10T20:06:53;1.3;80.0
21121;DHT22;12519;43.318;21.898;2024-01-10T20:11:29;1.4;80.0
21121;DHT22;12519;43.318;21.898;2024-01-10T20:16:06;1.4;80.0
21121;DHT22;12519;43.318;21.898;2024-01-10T20:20:43;1.4;80.0
21121;DHT22;12519;43.318;21.898;2024-01-10T20:25:20;1.4;79.0
21121;DHT22;12519;43.318;21.898;2024-01-10T20:29:57;1.4;79.0
21121;DHT22;12519;43.318;21.898;2024-01-10T20:34:34;1.2;80.0
21121;DHT22;12519;43.318;21.898;2024-01-10T20:39:11;1.2;80.0
21121;DHT22;12519;43.318;21.898;2024-01-10T20:43:47;1.0;81.0
21121;DHT22;12519;43.318;21.898;2024-01-10T20:48:23;1.0;81.0
21121;DHT22;12519;43.318;21.898;2024-01-10T20:52:59;1.0;81.0
21121;DHT22;12519;43.318;21.898;2024-01-10T20:57:35;1.0;81.0
21121;DHT22;12519;43.318;21.898;2024-01-10T21:02:11;1.1;81.0
21121;DHT22;12519;43.318;21.898;2024-01-10T21:06:48;1.1;81.0
21121;DHT22;12519;43.318;21.898;2024-01-10T21:11:24;1.0;81.0
21121;DHT22;12519;43.318;21.898;2024-01-10T21:16:01;1.0;81.0
21121;DHT22;12519;43.318;21.898;2024-01-10T21:20:38;1.0;81.0
21121;DHT22;12519;43.318;21.898;2024-01-10T21:25:14;0.8;81.0
21121;DHT22;12519;43.318;21.898;2024-01-10T21:29:51;0.8;81.0
21121;DHT22;12519;43.318;21.898;2024-01-10T21:34:27;0.8;82.0
21121;DHT22;12519;43.318;21.898;2024-01-10T21:39:04;0.8;82.0
21121;DHT22;12519;43.318;21.898;2024-01-10T21:43:40;0.9;82.0
21121;DHT22;12519;43.318;21.898;2024-01-10T21:48:17;0.9;82.0
21121;DHT22;12519;43.318;21.898;2024-01-10T21:52:53;0.7;82.0
21121;DHT22;12519;43.318;21.898;2024-01-10T21:57:29;0.7;82.0
21121;DHT22;12519;43.318;21.898;2024-01-10T22:02:06;0.5;83.0
21121;DHT22;12519;43.318;21.898;2024-01-10T22:06:42;0.5;83.0
21121;DHT22;12519;43.318;21.898;2024-01-10T22:11:19;0.4;83.0
21121;DHT22;12519;43.318;21.898;2024-01-10T22:15:55;0.4;83.0
21121;DHT22;12519;43.318;21.898;2024-01-10T22:20:31;0.4;83.0
21121;DHT22;12519;43.318;21.898;2024-01-10T22:25:08;0.3;84.0
21121;DHT22;12519;43.318;21.898;2024-01-10T22:29:44;0.3;84.0
21121;DHT22;12519;43.318;21.898;2024-01-10T22:34:21;0.4;84.0
21121;DHT22;12519;43.318;21.898;2024-01-10T22:38:57;0.4;84.0
21121;DHT22;12519;43.318;21.898;2024-01-10T22:43:34;0.4;83.0
21121;DHT22;12519;43.318;21.898;2024-01-10T22:48:10;0.4;83.0
21121;DHT22;12519;43.318;21.898;2024-01-10T22:52:47;0.4;85.0
21121;DHT22;12519;43.318;21.898;2024-01-10T22:57:24;0.4;85.0
21121;DHT22;12519;43.318;21.898;2024-01-10T23:15:50;1.5;89.0
21121;DHT22;12519;43.318;21.898;2024-01-10T23:20:27;1.5;89.0
21121;DHT22;12519;43.318;21.898;2024-01-10T23:25:04;1.5;91.0
21121;DHT22;12519;43.318;21.898;2024-01-10T23:29:42;1.5;91.0
21121;DHT22;12519;43.318;21.898;2024-01-10T23:34:18;0.8;91.0
21121;DHT22;12519;43.318;21.898;2024-01-10T23:38:54;0.8;91.0
21121;DHT22;12519;43.318;21.898;2024-01-10T23:43:30;0.1;90.0
21121;DHT22;12519;43.318;21.898;2024-01-10T23:48:07;0.1;90.0
21121;DHT22;12519;43.318;21.898;2024-01-10T23:52:43;-0.2;91.0
21121;DHT22;12519;43.318;21.898;2024-01-10T23:57:20;-0.2;91.0
